sensor_id;sensor_type;location;lat;lon;timestamp;pressure;altitude;pressure_sealevel;temperature;humidity
23446;BME280;11895;48.738;9.320;2023-03-13T00:01:41;98352.75;;;9.37;100.00
23446;BME280;11895;48.738;9.320;2023-03-13T00:04:12;98347.09;;;9.43;100.00
23446;BME280;11895;48.738;9.320;2023-03-13T00:06:39;98355.81;;;9.48;100.00
23446;BME280;11895;48.738;9.320;2023-03-13T00:09:09;98352.25;;;9.48;100.00
23446;BME280;11895;48.738;9.320;2023-03-13T00:11:38;98350.25;;;9.51;100.00
23446;BME280;11895;48.738;9.320;2023-03-13T00:14:06;98346.66;;;9.52;100.00
23446;BME280;11895;48.738;9.320;2023-03-13T00:16:34;98339.22;;;9.58;100.00
23446;BME280;11895;48.738;9.320;2023-03-13T00:19:04;98343.00;;;9.53;100.00
23446;BME280;11895;48.738;9.320;2023-03-13T00:21:32;98333.84;;;9.58;100.00
23446;BME280;11895;48.738;9.320;2023-03-13T00:24:03;98339.22;;;9.58;100.00
23446;BME280;11895;48.738;9.320;2023-03-13T00:26:31;98339.03;;;9.61;100.00
23446;BME280;11895;48.738;9.320;2023-03-13T00:28:58;98340.78;;;9.62;100.00
23446;BME280;11895;48.738;9.320;2023-03-13T00:31:28;98343.00;;;9.71;100.00
23446;BME280;11895;48.738;9.320;2023-03-13T00:34:02;98341.69;;;9.62;100.00
23446;BME280;11895;48.738;9.320;2023-03-13T00:36:32;98337.53;;;9.55;100.00
23446;BME280;11895;48.738;9.320;2023-03-13T00:39:02;98337.91;;;9.47;100.00
23446;BME280;11895;48.738;9.320;2023-03-13T00:41:31;98338.31;;;9.57;100.00
23446;BME280;11895;48.738;9.320;2023-03-13T00:43:59;98338.19;;;9.60;100.00
23446;BME280;11895;48.738;9.320;2023-03-13T00:46:28;98335.41;;;9.62;100.00
23446;BME280;11895;48.738;9.320;2023-03-13T00:48:56;98333.94;;;9.73;100.00
23446;BME280;11895;48.738;9.320;2023-03-13T00:51:25;98333.34;;;9.67;100.00
23446;BME280;11895;48.738;9.320;2023-03-13T00:53:55;98328.69;;;9.70;100.00
23446;BME280;11895;48.738;9.320;2023-03-13T00:56:23;98323.41;;;9.69;100.00
23446;BME280;11895;48.738;9.320;2023-03-13T00:58:50;98324.66;;;9.62;100.00
23446;BME280;11895;48.738;9.320;2023-03-13T01:01:28;98318.41;;;9.61;100.00
23446;BME280;11895;48.738;9.320;2023-03-13T01:03:59;98317.72;;;9.58;100.00
23446;BME280;11895;48.738;9.320;2023-03-13T01:06:31;98320.06;;;9.64;100.00
23446;BME280;11895;48.738;9.320;2023-03-13T01:09:00;98301.72;;;9.55;100.00
23446;BME280;11895;48.738;9.320;2023-03-13T01:11:30;98304.44;;;9.72;100.00
23446;BME280;11895;48.738;9.320;2023-03-13T01:14:01;98303.63;;;9.70;100.00
23446;BME280;11895;48.738;9.320;2023-03-13T01:16:32;98290.81;;;9.58;100.00
23446;BME280;11895;48.738;9.320;2023-03-13T01:19:03;98289.53;;;9.47;100.00
23446;BME280;11895;48.738;9.320;2023-03-13T01:21:32;98282.91;;;9.55;100.00
23446;BME280;11895;48.738;9.320;2023-03-13T01:24:00;98278.53;;;9.35;100.00
23446;BME280;11895;48.738;9.320;2023-03-13T01:26:27;98269.06;;;9.45;100.00
23446;BME280;11895;48.738;9.320;2023-03-13T01:28:55;98264.22;;;9.51;100.00
23446;BME280;11895;48.738;9.320;2023-03-13T01:31:41;98259.81;;;9.50;100.00
23446;BME280;11895;48.738;9.320;2023-03-13T01:34:09;98258.69;;;9.55;100.00
23446;BME280;11895;48.738;9.320;2023-03-13T01:36:37;98264.78;;;9.41;100.00
23446;BME280;11895;48.738;9.320;2023-03-13T01:39:05;98251.41;;;9.57;100.00
23446;BME280;11895;48.738;9.320;2023-03-13T01:41:32;98250.88;;;9.67;100.00
23446;BME280;11895;48.738;9.320;2023-03-13T01:44:00;98250.66;;;9.72;100.00
23446;BME280;11895;48.738;9.320;2023-03-13T01:46:33;98245.88;;;9.60;100.00
23446;BME280;11895;48.738;9.320;2023-03-13T01:49:26;98236.72;;;9.64;100.00
23446;BME280;11895;48.738;9.320;2023-03-13T01:52:09;98233.69;;;9.18;100.00
23446;BME280;11895;48.738;9.320;2023-03-13T01:55:25;98236.41;;;9.35;100.00
23446;BME280;11895;48.738;9.320;2023-03-13T01:57:50;98224.59;;;9.38;100.00
23446;BME280;11895;48.738;9.320;2023-03-13T02:00:23;98224.47;;;9.41;100.00
23446;BME280;11895;48.738;9.320;2023-03-13T02:02:56;98205.09;;;9.34;100.00
23446;BME280;11895;48.738;9.320;2023-03-13T02:05:26;98207.78;;;9.51;100.00
23446;BME280;11895;48.738;9.320;2023-03-13T02:07:56;98199.56;;;9.55;100.00
23446;BME280;11895;48.738;9.320;2023-03-13T02:10:30;98200.47;;;9.71;100.00
23446;BME280;11895;48.738;9.320;2023-03-13T02:12:59;98195.28;;;9.68;100.00
23446;BME280;11895;48.738;9.320;2023-03-13T02:15:27;98187.41;;;9.81;100.00
23446;BME280;11895;48.738;9.320;2023-03-13T02:17:56;98181.63;;;9.88;100.00
23446;BME280;11895;48.738;9.320;2023-03-13T02:20:24;98181.16;;;9.80;100.00
23446;BME280;11895;48.738;9.320;2023-03-13T02:23:20;98179.16;;;9.68;100.00
23446;BME280;11895;48.738;9.320;2023-03-13T02:25:51;98186.25;;;9.51;100.00
23446;BME280;11895;48.738;9.320;2023-03-13T02:28:27;98173.44;;;9.57;100.00
23446;BME280;11895;48.738;9.320;2023-03-13T02:31:00;98182.50;;;9.38;100.00
23446;BME280;11895;48.738;9.320;2023-03-13T02:33:31;98173.16;;;9.63;100.00
23446;BME280;11895;48.738;9.320;2023-03-13T02:36:02;98175.34;;;9.72;100.00
23446;BME280;11895;48.738;9.320;2023-03-13T02:38:34;98164.97;;;9.82;100.00
23446;BME280;11895;48.738;9.320;2023-03-13T02:41:05;98154.88;;;9.85;100.00
23446;BME280;11895;48.738;9.320;2023-03-13T02:43:36;98157.66;;;9.84;100.00
23446;BME280;11895;48.738;9.320;2023-03-13T02:48:49;98149.69;;;9.82;100.00
23446;BME280;11895;48.738;9.320;2023-03-13T02:51:22;98156.38;;;9.91;100.00
23446;BME280;11895;48.738;9.320;2023-03-13T02:53:57;98142.59;;;9.97;100.00
23446;BME280;11895;48.738;9.320;2023-03-13T02:56:30;98136.97;;;10.01;100.00
23446;BME280;11895;48.738;9.320;2023-03-13T02:59:00;98131.34;;;10.06;100.00
23446;BME280;11895;48.738;9.320;2023-03-13T03:01:27;98121.25;;;10.10;100.00
23446;BME280;11895;48.738;9.320;2023-03-13T03:03:55;98112.25;;;10.11;100.00
23446;BME280;11895;48.738;9.320;2023-03-13T03:06:23;98110.69;;;10.07;100.00
23446;BME280;11895;48.738;9.320;2023-03-13T03:08:51;98109.63;;;10.09;100.00
23446;BME280;11895;48.738;9.320;2023-03-13T03:11:18;98106.78;;;9.96;100.00
23446;BME280;11895;48.738;9.320;2023-03-13T03:13:50;98106.31;;;9.88;100.00
23446;BME280;11895;48.738;9.320;2023-03-13T03:16:18;98092.09;;;10.18;100.00
23446;BME280;11895;48.738;9.320;2023-03-13T03:18:46;98086.41;;;10.24;100.00
23446;BME280;11895;48.738;9.320;2023-03-13T03:21:13;98081.69;;;10.12;100.00
23446;BME280;11895;48.738;9.320;2023-03-13T03:23:40;98082.00;;;10.05;100.00
23446;BME280;11895;48.738;9.320;2023-03-13T03:26:08;98093.50;;;10.25;100.00
23446;BME280;11895;48.738;9.320;2023-03-13T03:28:36;98090.38;;;10.17;100.00
23446;BME280;11895;48.738;9.320;2023-03-13T03:31:09;98086.00;;;9.98;100.00
23446;BME280;11895;48.738;9.320;2023-03-13T03:33:39;98083.44;;;9.97;100.00
23446;BME280;11895;48.738;9.320;2023-03-13T03:36:18;98087.59;;;10.02;100.00
23446;BME280;11895;48.738;9.320;2023-03-13T03:38:48;98073.16;;;9.88;100.00
23446;BME280;11895;48.738;9.320;2023-03-13T03:41:18;98071.09;;;9.93;100.00
23446;BME280;11895;48.738;9.320;2023-03-13T03:43:46;98076.81;;;9.87;100.00
23446;BME280;11895;48.738;9.320;2023-03-13T03:46:16;98065.16;;;9.86;100.00
23446;BME280;11895;48.738;9.320;2023-03-13T03:48:44;98068.50;;;9.91;100.00
23446;BME280;11895;48.738;9.320;2023-03-13T03:51:12;98075.56;;;9.76;100.00
23446;BME280;11895;48.738;9.320;2023-03-13T03:53:42;98069.28;;;9.44;100.00
23446;BME280;11895;48.738;9.320;2023-03-13T03:56:09;98068.47;;;9.42;100.00
23446;BME280;11895;48.738;9.320;2023-03-13T03:58:42;98062.44;;;9.21;100.00
23446;BME280;11895;48.738;9.320;2023-03-13T04:01:30;98063.81;;;8.95;100.00
23446;BME280;11895;48.738;9.320;2023-03-13T04:03:57;98060.22;;;9.12;100.00
23446;BME280;11895;48.738;9.320;2023-03-13T04:06:25;98069.81;;;9.00;100.00
23446;BME280;11895;48.738;9.320;2023-03-13T04:08:52;98067.84;;;9.37;100.00
23446;BME280;11895;48.738;9.320;2023-03-13T04:11:23;98064.78;;;9.27;100.00
23446;BME280;11895;48.738;9.320;2023-03-13T04:13:53;98076.22;;;9.48;100.00
23446;BME280;11895;48.738;9.320;2023-03-13T04:16:21;98075.28;;;9.65;100.00
23446;BME280;11895;48.738;9.320;2023-03-13T04:18:49;98065.88;;;9.74;100.00
23446;BME280;11895;48.738;9.320;2023-03-13T04:21:17;98061.19;;;9.77;100.00
23446;BME280;11895;48.738;9.320;2023-03-13T04:23:52;98054.16;;;9.75;100.00
23446;BME280;11895;48.738;9.320;2023-03-13T04:26:20;98061.19;;;9.77;100.00
23446;BME280;11895;48.738;9.320;2023-03-13T04:28:50;98057.91;;;9.88;100.00
23446;BME280;11895;48.738;9.320;2023-03-13T04:31:23;98058.25;;;9.82;100.00
23446;BME280;11895;48.738;9.320;2023-03-13T04:34:05;98049.22;;;9.83;100.00
23446;BME280;11895;48.738;9.320;2023-03-13T04:36:59;98053.06;;;10.11;100.00
23446;BME280;11895;48.738;9.320;2023-03-13T04:39:55;98048.19;;;10.33;100.00
23446;BME280;11895;48.738;9.320;2023-03-13T04:42:50;98048.56;;;10.27;100.00
23446;BME280;11895;48.738;9.320;2023-03-13T04:45:35;98033.94;;;10.47;100.00
23446;BME280;11895;48.738;9.320;2023-03-13T04:48:20;98029.25;;;10.50;100.00
23446;BME280;11895;48.738;9.320;2023-03-13T04:51:06;98020.09;;;10.69;100.00
23446;BME280;11895;48.738;9.320;2023-03-13T04:53:59;98037.19;;;10.68;100.00
23446;BME280;11895;48.738;9.320;2023-03-13T04:56:44;98049.75;;;10.83;100.00
23446;BME280;11895;48.738;9.320;2023-03-13T04:59:27;98034.34;;;10.85;100.00
23446;BME280;11895;48.738;9.320;2023-03-13T05:02:04;98048.47;;;10.74;100.00
23446;BME280;11895;48.738;9.320;2023-03-13T05:04:38;98044.53;;;10.80;100.00
23446;BME280;11895;48.738;9.320;2023-03-13T05:07:15;98039.75;;;10.85;100.00
23446;BME280;11895;48.738;9.320;2023-03-13T05:10:08;98029.97;;;10.98;100.00
23446;BME280;11895;48.738;9.320;2023-03-13T05:12:45;98030.16;;;10.95;100.00
23446;BME280;11895;48.738;9.320;2023-03-13T05:15:25;98033.66;;;10.81;100.00
23446;BME280;11895;48.738;9.320;2023-03-13T05:18:10;98028.38;;;10.80;100.00
23446;BME280;11895;48.738;9.320;2023-03-13T05:21:05;98018.13;;;11.01;100.00
23446;BME280;11895;48.738;9.320;2023-03-13T05:23:51;98027.03;;;10.87;100.00
23446;BME280;11895;48.738;9.320;2023-03-13T05:26:36;98026.13;;;11.02;100.00
23446;BME280;11895;48.738;9.320;2023-03-13T05:29:22;98027.00;;;11.03;100.00
23446;BME280;11895;48.738;9.320;2023-03-13T05:32:13;98032.63;;;10.84;100.00
23446;BME280;11895;48.738;9.320;2023-03-13T05:34:42;98034.56;;;10.96;100.00
23446;BME280;11895;48.738;9.320;2023-03-13T05:37:30;98039.19;;;10.94;100.00
23446;BME280;11895;48.738;9.320;2023-03-13T05:40:11;98040.94;;;10.95;100.00
23446;BME280;11895;48.738;9.320;2023-03-13T05:42:47;98027.63;;;10.92;100.00
23446;BME280;11895;48.738;9.320;2023-03-13T05:45:41;98026.34;;;11.28;100.00
23446;BME280;11895;48.738;9.320;2023-03-13T05:48:31;98025.56;;;11.40;100.00
23446;BME280;11895;48.738;9.320;2023-03-13T05:51:16;98027.50;;;11.52;100.00
23446;BME280;11895;48.738;9.320;2023-03-13T05:54:10;98014.03;;;11.67;100.00
23446;BME280;11895;48.738;9.320;2023-03-13T05:56:50;98015.75;;;11.53;100.00
23446;BME280;11895;48.738;9.320;2023-03-13T05:59:36;98015.34;;;11.59;100.00
23446;BME280;11895;48.738;9.320;2023-03-13T06:02:22;98014.50;;;11.59;100.00
23446;BME280;11895;48.738;9.320;2023-03-13T06:04:50;98019.44;;;11.52;100.00
23446;BME280;11895;48.738;9.320;2023-03-13T06:07:17;98002.84;;;11.44;100.00
23446;BME280;11895;48.738;9.320;2023-03-13T06:09:45;97996.47;;;11.74;100.00
23446;BME280;11895;48.738;9.320;2023-03-13T06:12:13;98010.94;;;11.73;100.00
23446;BME280;11895;48.738;9.320;2023-03-13T06:14:40;98009.97;;;11.88;100.00
23446;BME280;11895;48.738;9.320;2023-03-13T06:17:13;98010.53;;;11.79;100.00
23446;BME280;11895;48.738;9.320;2023-03-13T06:19:41;98024.88;;;11.79;100.00
23446;BME280;11895;48.738;9.320;2023-03-13T06:22:08;98014.09;;;11.79;100.00
23446;BME280;11895;48.738;9.320;2023-03-13T06:24:35;98021.72;;;12.01;100.00
23446;BME280;11895;48.738;9.320;2023-03-13T06:27:02;98021.72;;;12.01;100.00
23446;BME280;11895;48.738;9.320;2023-03-13T06:29:29;98016.38;;;12.14;100.00
23446;BME280;11895;48.738;9.320;2023-03-13T06:31:56;98006.50;;;12.27;100.00
23446;BME280;11895;48.738;9.320;2023-03-13T06:34:23;98021.03;;;12.39;100.00
23446;BME280;11895;48.738;9.320;2023-03-13T06:36:51;98031.56;;;12.56;100.00
23446;BME280;11895;48.738;9.320;2023-03-13T06:39:18;98021.53;;;12.58;100.00
23446;BME280;11895;48.738;9.320;2023-03-13T06:41:45;98015.84;;;12.76;100.00
23446;BME280;11895;48.738;9.320;2023-03-13T06:44:12;98022.63;;;12.69;100.00
23446;BME280;11895;48.738;9.320;2023-03-13T06:46:39;98008.75;;;13.00;100.00
23446;BME280;11895;48.738;9.320;2023-03-13T06:49:06;98002.69;;;13.09;100.00
23446;BME280;11895;48.738;9.320;2023-03-13T06:51:33;98006.31;;;13.23;100.00
23446;BME280;11895;48.738;9.320;2023-03-13T06:54:01;97995.19;;;13.40;100.00
23446;BME280;11895;48.738;9.320;2023-03-13T06:56:29;98003.28;;;13.53;100.00
23446;BME280;11895;48.738;9.320;2023-03-13T06:58:56;98010.72;;;13.75;100.00
23446;BME280;11895;48.738;9.320;2023-03-13T07:01:25;98012.84;;;13.82;100.00
23446;BME280;11895;48.738;9.320;2023-03-13T07:03:53;98012.47;;;13.63;100.00
23446;BME280;11895;48.738;9.320;2023-03-13T07:06:20;98005.56;;;13.46;100.00
23446;BME280;11895;48.738;9.320;2023-03-13T07:08:47;98016.91;;;13.64;100.00
23446;BME280;11895;48.738;9.320;2023-03-13T07:11:14;98021.03;;;13.70;100.00
23446;BME280;11895;48.738;9.320;2023-03-13T07:13:41;98022.16;;;13.91;100.00
23446;BME280;11895;48.738;9.320;2023-03-13T07:16:11;98028.03;;;13.85;100.00
23446;BME280;11895;48.738;9.320;2023-03-13T07:18:39;98031.34;;;14.01;100.00
23446;BME280;11895;48.738;9.320;2023-03-13T07:21:13;98041.56;;;13.85;100.00
23446;BME280;11895;48.738;9.320;2023-03-13T07:23:40;98033.97;;;13.90;100.00
23446;BME280;11895;48.738;9.320;2023-03-13T07:26:13;98034.81;;;14.03;100.00
23446;BME280;11895;48.738;9.320;2023-03-13T07:28:41;98026.97;;;14.11;100.00
23446;BME280;11895;48.738;9.320;2023-03-13T07:31:19;98031.09;;;14.17;100.00
23446;BME280;11895;48.738;9.320;2023-03-13T07:33:47;98028.34;;;14.30;100.00
23446;BME280;11895;48.738;9.320;2023-03-13T07:36:15;98013.22;;;14.51;100.00
23446;BME280;11895;48.738;9.320;2023-03-13T07:38:42;98023.25;;;14.25;100.00
23446;BME280;11895;48.738;9.320;2023-03-13T07:41:13;98003.75;;;14.33;100.00
23446;BME280;11895;48.738;9.320;2023-03-13T07:43:40;98012.84;;;14.32;100.00
23446;BME280;11895;48.738;9.320;2023-03-13T07:46:11;98005.25;;;14.37;100.00
23446;BME280;11895;48.738;9.320;2023-03-13T07:48:41;97999.50;;;14.65;100.00
23446;BME280;11895;48.738;9.320;2023-03-13T07:51:23;97999.41;;;14.78;100.00
23446;BME280;11895;48.738;9.320;2023-03-13T07:54:08;98001.84;;;14.94;100.00
23446;BME280;11895;48.738;9.320;2023-03-13T07:56:36;98010.50;;;14.75;100.00
23446;BME280;11895;48.738;9.320;2023-03-13T07:59:03;97993.25;;;14.76;100.00
23446;BME280;11895;48.738;9.320;2023-03-13T08:01:30;97990.56;;;14.76;100.00
23446;BME280;11895;48.738;9.320;2023-03-13T08:03:57;97986.81;;;15.01;100.00
23446;BME280;11895;48.738;9.320;2023-03-13T08:06:29;97974.03;;;15.26;100.00
23446;BME280;11895;48.738;9.320;2023-03-13T08:09:00;97985.06;;;15.00;100.00
23446;BME280;11895;48.738;9.320;2023-03-13T08:11:28;97980.84;;;14.85;100.00
23446;BME280;11895;48.738;9.320;2023-03-13T08:13:56;97968.03;;;14.98;100.00
23446;BME280;11895;48.738;9.320;2023-03-13T08:16:27;97958.59;;;15.26;100.00
23446;BME280;11895;48.738;9.320;2023-03-13T08:18:57;97942.94;;;15.41;100.00
23446;BME280;11895;48.738;9.320;2023-03-13T08:21:30;97939.88;;;15.23;100.00
23446;BME280;11895;48.738;9.320;2023-03-13T08:24:03;97954.94;;;15.38;100.00
23446;BME280;11895;48.738;9.320;2023-03-13T08:26:34;97928.91;;;15.36;100.00
23446;BME280;11895;48.738;9.320;2023-03-13T08:29:06;97914.22;;;15.83;100.00
23446;BME280;11895;48.738;9.320;2023-03-13T08:31:47;97935.19;;;15.59;100.00
23446;BME280;11895;48.738;9.320;2023-03-13T08:34:16;97921.25;;;15.86;100.00
23446;BME280;11895;48.738;9.320;2023-03-13T08:36:44;97913.47;;;15.92;100.00
23446;BME280;11895;48.738;9.320;2023-03-13T08:39:14;97915.56;;;15.89;100.00
23446;BME280;11895;48.738;9.320;2023-03-13T08:41:43;97935.25;;;16.13;100.00
23446;BME280;11895;48.738;9.320;2023-03-13T08:44:12;97945.41;;;16.11;100.00
23446;BME280;11895;48.738;9.320;2023-03-13T08:46:41;97958.56;;;16.27;100.00
23446;BME280;11895;48.738;9.320;2023-03-13T08:49:10;97928.75;;;16.37;100.00
23446;BME280;11895;48.738;9.320;2023-03-13T08:51:39;97925.56;;;16.64;100.00
23446;BME280;11895;48.738;9.320;2023-03-13T08:54:06;97925.03;;;16.38;100.00
23446;BME280;11895;48.738;9.320;2023-03-13T08:56:33;97936.06;;;16.36;100.00
23446;BME280;11895;48.738;9.320;2023-03-13T08:59:02;97925.97;;;16.27;100.00
23446;BME280;11895;48.738;9.320;2023-03-13T09:01:32;97929.28;;;16.31;100.00
23446;BME280;11895;48.738;9.320;2023-03-13T09:04:01;97945.69;;;16.29;100.00
23446;BME280;11895;48.738;9.320;2023-03-13T09:06:32;97930.25;;;16.62;100.00
23446;BME280;11895;48.738;9.320;2023-03-13T09:08:59;97929.44;;;16.82;100.00
23446;BME280;11895;48.738;9.320;2023-03-13T09:11:27;97927.56;;;17.25;100.00
23446;BME280;11895;48.738;9.320;2023-03-13T09:13:55;97917.69;;;17.24;100.00
23446;BME280;11895;48.738;9.320;2023-03-13T09:16:30;97927.03;;;17.31;100.00
23446;BME280;11895;48.738;9.320;2023-03-13T09:18:58;97936.38;;;17.68;100.00
23446;BME280;11895;48.738;9.320;2023-03-13T09:21:28;97931.84;;;17.79;100.00
23446;BME280;11895;48.738;9.320;2023-03-13T09:23:57;97924.78;;;17.36;100.00
23446;BME280;11895;48.738;9.320;2023-03-13T09:26:25;97916.03;;;17.11;100.00
23446;BME280;11895;48.738;9.320;2023-03-13T09:28:54;97925.19;;;17.10;100.00
23446;BME280;11895;48.738;9.320;2023-03-13T09:31:26;97914.72;;;17.27;100.00
23446;BME280;11895;48.738;9.320;2023-03-13T09:33:54;97914.41;;;17.51;100.00
23446;BME280;11895;48.738;9.320;2023-03-13T09:36:22;97911.63;;;17.41;100.00
23446;BME280;11895;48.738;9.320;2023-03-13T09:38:51;97910.53;;;17.02;100.00
23446;BME280;11895;48.738;9.320;2023-03-13T09:41:39;97915.63;;;17.37;100.00
23446;BME280;11895;48.738;9.320;2023-03-13T09:44:14;97932.16;;;17.76;100.00
23446;BME280;11895;48.738;9.320;2023-03-13T09:49:30;97919.47;;;17.65;100.00
23446;BME280;11895;48.738;9.320;2023-03-13T09:52:24;97923.03;;;17.35;100.00
23446;BME280;11895;48.738;9.320;2023-03-13T09:55:01;97931.19;;;17.35;100.00
23446;BME280;11895;48.738;9.320;2023-03-13T09:57:39;97936.56;;;16.94;100.00
23446;BME280;11895;48.738;9.320;2023-03-13T10:00:21;97939.41;;;17.44;100.00
23446;BME280;11895;48.738;9.320;2023-03-13T10:02:57;97926.75;;;17.34;100.00
23446;BME280;11895;48.738;9.320;2023-03-13T10:05:28;97942.34;;;17.83;100.00
23446;BME280;11895;48.738;9.320;2023-03-13T10:08:14;97926.69;;;17.76;100.00
23446;BME280;11895;48.738;9.320;2023-03-13T10:10:48;97916.50;;;18.28;100.00
23446;BME280;11895;48.738;9.320;2023-03-13T10:16:08;97909.91;;;18.40;100.00
23446;BME280;11895;48.738;9.320;2023-03-13T10:18:57;97899.28;;;18.75;100.00
23446;BME280;11895;48.738;9.320;2023-03-13T10:21:32;97887.94;;;18.90;100.00
23446;BME280;11895;48.738;9.320;2023-03-13T10:24:15;97880.50;;;18.82;100.00
23446;BME280;11895;48.738;9.320;2023-03-13T10:26:45;97882.00;;;19.04;100.00
23446;BME280;11895;48.738;9.320;2023-03-13T10:29:25;97866.81;;;19.39;100.00
23446;BME280;11895;48.738;9.320;2023-03-13T10:31:59;97891.25;;;18.93;100.00
23446;BME280;11895;48.738;9.320;2023-03-13T10:35:04;97874.47;;;18.69;100.00
23446;BME280;11895;48.738;9.320;2023-03-13T10:37:40;97866.25;;;18.98;100.00
23446;BME280;11895;48.738;9.320;2023-03-13T10:40:29;97867.47;;;19.23;100.00
23446;BME280;11895;48.738;9.320;2023-03-13T10:43:05;97866.06;;;19.09;100.00
23446;BME280;11895;48.738;9.320;2023-03-13T10:45:38;97854.16;;;19.10;100.00
23446;BME280;11895;48.738;9.320;2023-03-13T10:50:45;97846.34;;;19.52;99.58
23446;BME280;11895;48.738;9.320;2023-03-13T10:53:32;97849.75;;;19.37;100.00
23446;BME280;11895;48.738;9.320;2023-03-13T10:56:15;97842.25;;;19.39;100.00
23446;BME280;11895;48.738;9.320;2023-03-13T10:58:51;97825.44;;;19.34;100.00
23446;BME280;11895;48.738;9.320;2023-03-13T11:01:29;97825.31;;;19.35;100.00
23446;BME280;11895;48.738;9.320;2023-03-13T11:04:27;97824.66;;;19.61;100.00
23446;BME280;11895;48.738;9.320;2023-03-13T11:07:04;97818.59;;;19.57;100.00
23446;BME280;11895;48.738;9.320;2023-03-13T11:09:32;97804.50;;;20.07;96.18
23446;BME280;11895;48.738;9.320;2023-03-13T11:12:19;97799.78;;;19.82;96.50
23446;BME280;11895;48.738;9.320;2023-03-13T11:14:46;97813.03;;;19.76;97.55
23446;BME280;11895;48.738;9.320;2023-03-13T11:31:48;97790.41;;;20.38;90.42
23446;BME280;11895;48.738;9.320;2023-03-13T11:34:23;97785.66;;;20.58;86.59
23446;BME280;11895;48.738;9.320;2023-03-13T11:37:02;97774.16;;;20.54;87.40
23446;BME280;11895;48.738;9.320;2023-03-13T11:46:21;97725.16;;;21.88;76.55
23446;BME280;11895;48.738;9.320;2023-03-13T11:55:24;97703.94;;;21.98;73.58
23446;BME280;11895;48.738;9.320;2023-03-13T12:06:25;97663.16;;;22.27;73.73
23446;BME280;11895;48.738;9.320;2023-03-13T12:11:41;97651.81;;;22.55;70.58
23446;BME280;11895;48.738;9.320;2023-03-13T12:14:25;97643.25;;;21.85;71.68
23446;BME280;11895;48.738;9.320;2023-03-13T12:17:26;97633.63;;;22.54;69.61
23446;BME280;11895;48.738;9.320;2023-03-13T12:20:05;97626.41;;;22.53;66.37
23446;BME280;11895;48.738;9.320;2023-03-13T12:22:41;97629.41;;;22.91;67.09
23446;BME280;11895;48.738;9.320;2023-03-13T12:25:28;97609.78;;;23.64;58.99
23446;BME280;11895;48.738;9.320;2023-03-13T12:28:22;97608.41;;;24.06;56.91
23446;BME280;11895;48.738;9.320;2023-03-13T12:34:02;97571.25;;;25.50;49.30
23446;BME280;11895;48.738;9.320;2023-03-13T12:37:02;97568.16;;;26.02;45.00
23446;BME280;11895;48.738;9.320;2023-03-13T12:39:51;97560.88;;;26.85;42.71
23446;BME280;11895;48.738;9.320;2023-03-13T12:45:28;97542.69;;;28.05;39.32
23446;BME280;11895;48.738;9.320;2023-03-13T13:01:59;97489.44;;;28.16;38.41
23446;BME280;11895;48.738;9.320;2023-03-13T13:04:30;97476.50;;;27.90;38.07
23446;BME280;11895;48.738;9.320;2023-03-13T13:07:00;97471.13;;;27.29;38.79
23446;BME280;11895;48.738;9.320;2023-03-13T13:09:30;97466.72;;;26.80;39.32
23446;BME280;11895;48.738;9.320;2023-03-13T13:12:22;97452.59;;;28.29;37.57
23446;BME280;11895;48.738;9.320;2023-03-13T13:20:26;97425.09;;;30.97;32.56
23446;BME280;11895;48.738;9.320;2023-03-13T13:22:56;97430.59;;;31.16;31.87
23446;BME280;11895;48.738;9.320;2023-03-13T13:25:56;97416.53;;;29.82;33.10
23446;BME280;11895;48.738;9.320;2023-03-13T13:29:50;97414.16;;;30.29;32.03
23446;BME280;11895;48.738;9.320;2023-03-13T13:31:54;97405.09;;;30.22;31.56
23446;BME280;11895;48.738;9.320;2023-03-13T13:36:57;97388.63;;;28.51;33.52
23446;BME280;11895;48.738;9.320;2023-03-13T13:39:52;97392.00;;;27.28;37.09
23446;BME280;11895;48.738;9.320;2023-03-13T13:45:00;97393.63;;;27.03;36.69
23446;BME280;11895;48.738;9.320;2023-03-13T13:47:30;97373.63;;;26.81;37.36
23446;BME280;11895;48.738;9.320;2023-03-13T13:50:00;97370.69;;;26.89;37.56
23446;BME280;11895;48.738;9.320;2023-03-13T13:52:38;97368.34;;;25.90;38.93
23446;BME280;11895;48.738;9.320;2023-03-13T13:58:08;97351.84;;;26.45;38.63
23446;BME280;11895;48.738;9.320;2023-03-13T14:00:52;97340.84;;;26.58;38.67
23446;BME280;11895;48.738;9.320;2023-03-13T14:03:25;97347.22;;;26.52;37.82
23446;BME280;11895;48.738;9.320;2023-03-13T14:06:02;97329.78;;;25.97;39.19
23446;BME280;11895;48.738;9.320;2023-03-13T14:08:44;97327.94;;;26.72;38.67
23446;BME280;11895;48.738;9.320;2023-03-13T14:13:40;97311.13;;;26.73;37.61
23446;BME280;11895;48.738;9.320;2023-03-13T14:18:51;97312.69;;;26.21;38.68
23446;BME280;11895;48.738;9.320;2023-03-13T14:21:22;97304.75;;;25.63;39.21
23446;BME280;11895;48.738;9.320;2023-03-13T14:23:51;97308.88;;;26.22;38.63
23446;BME280;11895;48.738;9.320;2023-03-13T14:26:26;97301.81;;;26.06;39.21
23446;BME280;11895;48.738;9.320;2023-03-13T14:28:58;97297.50;;;25.56;39.99
23446;BME280;11895;48.738;9.320;2023-03-13T14:31:30;97292.88;;;25.63;39.33
23446;BME280;11895;48.738;9.320;2023-03-13T14:34:00;97288.97;;;25.85;40.19
23446;BME280;11895;48.738;9.320;2023-03-13T14:36:30;97288.50;;;25.41;40.02
23446;BME280;11895;48.738;9.320;2023-03-13T14:39:35;97273.16;;;25.31;40.22
23446;BME280;11895;48.738;9.320;2023-03-13T14:42:14;97265.28;;;25.28;40.96
23446;BME280;11895;48.738;9.320;2023-03-13T14:44:44;97262.63;;;25.07;41.45
23446;BME280;11895;48.738;9.320;2023-03-13T14:49:46;97249.00;;;25.75;39.51
23446;BME280;11895;48.738;9.320;2023-03-13T14:52:24;97252.06;;;26.48;39.51
23446;BME280;11895;48.738;9.320;2023-03-13T14:55:00;97226.16;;;28.94;34.48
23446;BME280;11895;48.738;9.320;2023-03-13T14:57:31;97219.81;;;30.83;31.01
23446;BME280;11895;48.738;9.320;2023-03-13T15:00:23;97208.25;;;28.97;32.12
23446;BME280;11895;48.738;9.320;2023-03-13T15:03:19;97204.84;;;28.38;33.26